sensor_id;sensor_type;location;lat;lon;timestamp;temperature;humidity
10968;DHT22;5536;49.602;10.980;2024-01-16T00:01:52;0.30;99.90
10968;DHT22;5536;49.602;10.980;2024-01-16T00:04:19;0.30;99.90
10968;DHT22;5536;49.602;10.980;2024-01-16T00:06:46;0.30;99.90
10968;DHT22;5536;49.602;10.980;2024-01-16T00:09:13;0.20;99.90
10968;DHT22;5536;49.602;10.980;2024-01-16T00:11:40;0.20;99.90
10968;DHT22;5536;49.602;10.980;2024-01-16T00:14:07;0.20;99.90
10968;DHT22;5536;49.602;10.980;2024-01-16T00:16:43;0.20;99.90
10968;DHT22;5536;49.602;10.980;2024-01-16T00:19:10;0.20;99.90
10968;DHT22;5536;49.602;10.980;2024-01-16T00:21:39;0.20;99.90
10968;DHT22;5536;49.602;10.980;2024-01-16T00:24:06;0.20;99.90
10968;DHT22;5536;49.602;10.980;2024-01-16T00:26:33;0.20;99.90
10968;DHT22;5536;49.602;10.980;2024-01-16T00:29:00;0.20;99.90
10968;DHT22;5536;49.602;10.980;2024-01-16T00:31:27;0.20;99.90
10968;DHT22;5536;49.602;10.980;2024-01-16T00:33:56;0.20;99.90
10968;DHT22;5536;49.602;10.980;2024-01-16T00:36:23;0.20;99.90
10968;DHT22;5536;49.602;10.980;2024-01-16T00:38:50;0.30;99.90
10968;DHT22;5536;49.602;10.980;2024-01-16T00:41:17;0.20;99.90
10968;DHT22;5536;49.602;10.980;2024-01-16T00:43:44;0.20;99.90
10968;DHT22;5536;49.602;10.980;2024-01-16T00:46:11;0.20;99.90
10968;DHT22;5536;49.602;10.980;2024-01-16T00:48:38;0.20;99.90
10968;DHT22;5536;49.602;10.980;2024-01-16T00:51:06;0.20;99.90
10968;DHT22;5536;49.602;10.980;2024-01-16T00:53:33;0.20;99.90
10968;DHT22;5536;49.602;10.980;2024-01-16T00:56:06;0.30;99.90
10968;DHT22;5536;49.602;10.980;2024-01-16T00:58:33;0.20;99.90
10968;DHT22;5536;49.602;10.980;2024-01-16T01:01:00;0.20;99.90
10968;DHT22;5536;49.602;10.980;2024-01-16T01:03:27;0.20;99.90
10968;DHT22;5536;49.602;10.980;2024-01-16T01:05:54;0.20;99.90
10968;DHT22;5536;49.602;10.980;2024-01-16T01:08:22;0.20;99.90
10968;DHT22;5536;49.602;10.980;2024-01-16T01:10:49;0.20;99.90
10968;DHT22;5536;49.602;10.980;2024-01-16T01:13:16;0.20;99.90
10968;DHT22;5536;49.602;10.980;2024-01-16T01:15:43;0.20;99.90
10968;DHT22;5536;49.602;10.980;2024-01-16T01:18:11;0.20;99.90
10968;DHT22;5536;49.602;10.980;2024-01-16T01:20:38;0.20;99.90
10968;DHT22;5536;49.602;10.980;2024-01-16T01:23:05;0.20;99.90
10968;DHT22;5536;49.602;10.980;2024-01-16T01:25:33;0.20;99.90
10968;DHT22;5536;49.602;10.980;2024-01-16T01:28:00;0.20;99.90
10968;DHT22;5536;49.602;10.980;2024-01-16T01:30:27;0.10;99.90
10968;DHT22;5536;49.602;10.980;2024-01-16T01:32:54;0.10;99.90
10968;DHT22;5536;49.602;10.980;2024-01-16T01:35:22;0.10;99.90
10968;DHT22;5536;49.602;10.980;2024-01-16T01:37:51;0.10;99.90
10968;DHT22;5536;49.602;10.980;2024-01-16T01:40:18;0.20;99.90
10968;DHT22;5536;49.602;10.980;2024-01-16T01:42:46;0.20;99.90
10968;DHT22;5536;49.602;10.980;2024-01-16T01:45:13;0.10;99.90
10968;DHT22;5536;49.602;10.980;2024-01-16T01:47:41;0.20;99.90
10968;DHT22;5536;49.602;10.980;2024-01-16T01:50:09;0.10;99.90
10968;DHT22;5536;49.602;10.980;2024-01-16T01:52:38;0.10;99.90
10968;DHT22;5536;49.602;10.980;2024-01-16T01:55:10;0.20;99.90
10968;DHT22;5536;49.602;10.980;2024-01-16T01:57:38;0.10;99.90
10968;DHT22;5536;49.602;10.980;2024-01-16T02:00:08;0.10;99.90
10968;DHT22;5536;49.602;10.980;2024-01-16T02:02:35;0.10;99.90
10968;DHT22;5536;49.602;10.980;2024-01-16T02:05:03;0.10;99.90
10968;DHT22;5536;49.602;10.980;2024-01-16T02:07:31;0.10;99.90
10968;DHT22;5536;49.602;10.980;2024-01-16T02:10:00;0.10;99.90
10968;DHT22;5536;49.602;10.980;2024-01-16T02:12:27;0.10;99.90
10968;DHT22;5536;49.602;10.980;2024-01-16T02:14:54;0.10;99.90
10968;DHT22;5536;49.602;10.980;2024-01-16T02:17:22;0.20;99.90
10968;DHT22;5536;49.602;10.980;2024-01-16T02:19:49;0.10;99.90
10968;DHT22;5536;49.602;10.980;2024-01-16T02:22:20;0.10;99.90
10968;DHT22;5536;49.602;10.980;2024-01-16T02:24:50;0.10;99.90
10968;DHT22;5536;49.602;10.980;2024-01-16T02:27:17;0.10;99.90
10968;DHT22;5536;49.602;10.980;2024-01-16T02:29:44;0.10;99.90
10968;DHT22;5536;49.602;10.980;2024-01-16T02:32:12;0.10;99.90
10968;DHT22;5536;49.602;10.980;2024-01-16T02:34:40;0.10;99.90
10968;DHT22;5536;49.602;10.980;2024-01-16T02:37:07;0.10;99.90
10968;DHT22;5536;49.602;10.980;2024-01-16T02:39:34;0.10;99.90
10968;DHT22;5536;49.602;10.980;2024-01-16T02:42:03;0.10;99.90
10968;DHT22;5536;49.602;10.980;2024-01-16T02:44:30;0.10;99.90
10968;DHT22;5536;49.602;10.980;2024-01-16T02:46:57;0.10;99.90
10968;DHT22;5536;49.602;10.980;2024-01-16T02:49:24;0.10;99.90
10968;DHT22;5536;49.602;10.980;2024-01-16T02:51:52;0.10;99.90
10968;DHT22;5536;49.602;10.980;2024-01-16T02:54:20;0.10;99.90
10968;DHT22;5536;49.602;10.980;2024-01-16T02:56:47;0.10;99.90
10968;DHT22;5536;49.602;10.980;2024-01-16T02:59:15;0.10;99.90
10968;DHT22;5536;49.602;10.980;2024-01-16T03:01:42;0.10;99.90
10968;DHT22;5536;49.602;10.980;2024-01-16T03:04:09;0.10;99.90
10968;DHT22;5536;49.602;10.980;2024-01-16T03:06:37;0.10;99.90
10968;DHT22;5536;49.602;10.980;2024-01-16T03:09:04;0.00;99.90
10968;DHT22;5536;49.602;10.980;2024-01-16T03:11:32;0.00;99.90
10968;DHT22;5536;49.602;10.980;2024-01-16T03:13:59;-0.10;99.90
10968;DHT22;5536;49.602;10.980;2024-01-16T03:16:27;-0.10;99.90
10968;DHT22;5536;49.602;10.980;2024-01-16T03:18:54;-0.10;99.90
10968;DHT22;5536;49.602;10.980;2024-01-16T03:21:21;-0.10;99.90
10968;DHT22;5536;49.602;10.980;2024-01-16T03:23:48;-0.10;99.90
10968;DHT22;5536;49.602;10.980;2024-01-16T03:26:16;-0.10;99.90
10968;DHT22;5536;49.602;10.980;2024-01-16T03:28:43;-0.10;99.90
10968;DHT22;5536;49.602;10.980;2024-01-16T03:31:12;-0.10;99.90
10968;DHT22;5536;49.602;10.980;2024-01-16T03:33:40;-0.10;99.90
10968;DHT22;5536;49.602;10.980;2024-01-16T03:36:09;-0.10;99.90
10968;DHT22;5536;49.602;10.980;2024-01-16T03:38:36;-0.10;99.90
10968;DHT22;5536;49.602;10.980;2024-01-16T03:41:03;-0.10;99.90
10968;DHT22;5536;49.602;10.980;2024-01-16T03:43:32;-0.10;99.90
10968;DHT22;5536;49.602;10.980;2024-01-16T03:45:59;-0.10;99.90
10968;DHT22;5536;49.602;10.980;2024-01-16T03:48:26;0.00;99.90
10968;DHT22;5536;49.602;10.980;2024-01-16T03:50:55;0.00;99.90
10968;DHT22;5536;49.602;10.980;2024-01-16T03:53:22;-0.10;99.90
10968;DHT22;5536;49.602;10.980;2024-01-16T03:55:49;0.00;99.90
10968;DHT22;5536;49.602;10.980;2024-01-16T03:58:16;0.00;99.90
10968;DHT22;5536;49.602;10.980;2024-01-16T04:00:44;0.00;99.90
10968;DHT22;5536;49.602;10.980;2024-01-16T04:03:11;-0.10;99.90
10968;DHT22;5536;49.602;10.980;2024-01-16T04:05:38;-0.10;99.90
10968;DHT22;5536;49.602;10.980;2024-01-16T04:08:07;-0.10;99.90
10968;DHT22;5536;49.602;10.980;2024-01-16T04:10:34;-0.20;99.90
10968;DHT22;5536;49.602;10.980;2024-01-16T04:13:01;-0.20;99.90
10968;DHT22;5536;49.602;10.980;2024-01-16T04:15:29;-0.30;99.90
10968;DHT22;5536;49.602;10.980;2024-01-16T04:17:56;-0.30;99.90
10968;DHT22;5536;49.602;10.980;2024-01-16T04:20:22;-0.30;99.90
10968;DHT22;5536;49.602;10.980;2024-01-16T04:22:49;-0.30;99.90
10968;DHT22;5536;49.602;10.980;2024-01-16T04:25:18;-0.30;99.90
10968;DHT22;5536;49.602;10.980;2024-01-16T04:27:45;-0.30;99.90
10968;DHT22;5536;49.602;10.980;2024-01-16T04:30:13;-0.30;99.90
10968;DHT22;5536;49.602;10.980;2024-01-16T04:32:40;-0.30;99.90
10968;DHT22;5536;49.602;10.980;2024-01-16T04:35:07;-0.30;99.90
10968;DHT22;5536;49.602;10.980;2024-01-16T04:37:34;-0.40;99.90
10968;DHT22;5536;49.602;10.980;2024-01-16T04:40:01;-0.50;99.90
10968;DHT22;5536;49.602;10.980;2024-01-16T04:42:31;-0.50;99.90
10968;DHT22;5536;49.602;10.980;2024-01-16T04:44:58;-0.50;99.90
10968;DHT22;5536;49.602;10.980;2024-01-16T04:47:25;-0.40;99.90
10968;DHT22;5536;49.602;10.980;2024-01-16T04:49:52;-0.40;99.90
10968;DHT22;5536;49.602;10.980;2024-01-16T04:52:19;-0.50;99.90
10968;DHT22;5536;49.602;10.980;2024-01-16T04:54:46;-0.50;99.90
10968;DHT22;5536;49.602;10.980;2024-01-16T04:57:13;-0.50;99.90
10968;DHT22;5536;49.602;10.980;2024-01-16T04:59:42;-0.50;99.90
10968;DHT22;5536;49.602;10.980;2024-01-16T05:02:09;-0.50;99.90
10968;DHT22;5536;49.602;10.980;2024-01-16T05:04:37;-0.40;99.90
10968;DHT22;5536;49.602;10.980;2024-01-16T05:07:04;-0.40;99.90
10968;DHT22;5536;49.602;10.980;2024-01-16T05:09:31;-0.40;99.90
10968;DHT22;5536;49.602;10.980;2024-01-16T05:11:59;-0.40;99.90
10968;DHT22;5536;49.602;10.980;2024-01-16T05:14:26;-0.40;99.90
10968;DHT22;5536;49.602;10.980;2024-01-16T05:16:54;-0.40;99.90
10968;DHT22;5536;49.602;10.980;2024-01-16T05:19:21;-0.40;99.90
10968;DHT22;5536;49.602;10.980;2024-01-16T05:21:48;-0.40;99.90
10968;DHT22;5536;49.602;10.980;2024-01-16T05:24:15;-0.50;99.90
10968;DHT22;5536;49.602;10.980;2024-01-16T05:26:42;-0.50;99.90
10968;DHT22;5536;49.602;10.980;2024-01-16T05:29:09;-0.50;99.90
10968;DHT22;5536;49.602;10.980;2024-01-16T05:31:40;-0.50;99.90
10968;DHT22;5536;49.602;10.980;2024-01-16T05:34:09;-0.50;99.90
10968;DHT22;5536;49.602;10.980;2024-01-16T05:36:36;-0.50;99.90
10968;DHT22;5536;49.602;10.980;2024-01-16T05:39:03;-0.40;99.90
10968;DHT22;5536;49.602;10.980;2024-01-16T05:41:32;-0.40;99.90
10968;DHT22;5536;49.602;10.980;2024-01-16T05:44:00;-0.40;99.90
10968;DHT22;5536;49.602;10.980;2024-01-16T05:46:29;-0.40;99.90
10968;DHT22;5536;49.602;10.980;2024-01-16T05:48:56;-0.40;99.90
10968;DHT22;5536;49.602;10.980;2024-01-16T05:51:25;-0.30;99.90
10968;DHT22;5536;49.602;10.980;2024-01-16T05:53:52;-0.30;99.90
10968;DHT22;5536;49.602;10.980;2024-01-16T05:56:19;-0.30;99.90
10968;DHT22;5536;49.602;10.980;2024-01-16T05:58:46;-0.30;99.90
10968;DHT22;5536;49.602;10.980;2024-01-16T06:01:13;-0.30;99.90
10968;DHT22;5536;49.602;10.980;2024-01-16T06:03:40;-0.30;99.90
10968;DHT22;5536;49.602;10.980;2024-01-16T06:06:07;-0.30;99.90
10968;DHT22;5536;49.602;10.980;2024-01-16T06:08:36;-0.40;99.90
10968;DHT22;5536;49.602;10.980;2024-01-16T06:11:03;-0.30;99.90
10968;DHT22;5536;49.602;10.980;2024-01-16T06:13:30;-0.30;99.90
10968;DHT22;5536;49.602;10.980;2024-01-16T06:15:58;-0.30;99.90
10968;DHT22;5536;49.602;10.980;2024-01-16T06:18:25;-0.30;99.90
10968;DHT22;5536;49.602;10.980;2024-01-16T06:20:52;-0.30;99.90
10968;DHT22;5536;49.602;10.980;2024-01-16T06:23:19;-0.40;99.90
10968;DHT22;5536;49.602;10.980;2024-01-16T06:25:47;-0.40;99.90
10968;DHT22;5536;49.602;10.980;2024-01-16T06:28:16;-0.40;99.90
10968;DHT22;5536;49.602;10.980;2024-01-16T06:30:43;-0.40;99.90
10968;DHT22;5536;49.602;10.980;2024-01-16T06:33:10;-0.40;99.90
10968;DHT22;5536;49.602;10.980;2024-01-16T06:35:37;-0.40;99.90
10968;DHT22;5536;49.602;10.980;2024-01-16T06:38:04;-0.40;99.90
10968;DHT22;5536;49.602;10.980;2024-01-16T06:40:31;-0.40;99.90
10968;DHT22;5536;49.602;10.980;2024-01-16T06:42:59;-0.40;99.90
10968;DHT22;5536;49.602;10.980;2024-01-16T06:45:26;-0.40;99.90
10968;DHT22;5536;49.602;10.980;2024-01-16T06:47:53;-0.40;99.90
10968;DHT22;5536;49.602;10.980;2024-01-16T06:50:20;-0.40;99.90
10968;DHT22;5536;49.602;10.980;2024-01-16T06:52:47;-0.40;99.90
10968;DHT22;5536;49.602;10.980;2024-01-16T06:55:14;-0.40;99.90
10968;DHT22;5536;49.602;10.980;2024-01-16T06:57:43;-0.30;99.90
10968;DHT22;5536;49.602;10.980;2024-01-16T07:00:15;-0.40;99.90
10968;DHT22;5536;49.602;10.980;2024-01-16T07:02:42;-0.40;99.90
10968;DHT22;5536;49.602;10.980;2024-01-16T07:05:11;-0.40;99.90
10968;DHT22;5536;49.602;10.980;2024-01-16T07:07:38;-0.50;99.90
10968;DHT22;5536;49.602;10.980;2024-01-16T07:10:06;-0.50;99.90
10968;DHT22;5536;49.602;10.980;2024-01-16T07:12:38;-0.50;99.90
10968;DHT22;5536;49.602;10.980;2024-01-16T07:15:06;-0.50;99.90
10968;DHT22;5536;49.602;10.980;2024-01-16T07:17:35;-0.40;99.90
10968;DHT22;5536;49.602;10.980;2024-01-16T07:20:02;-0.40;99.90
10968;DHT22;5536;49.602;10.980;2024-01-16T07:22:29;-0.50;99.90
10968;DHT22;5536;49.602;10.980;2024-01-16T07:24:56;-0.50;99.90
10968;DHT22;5536;49.602;10.980;2024-01-16T07:27:23;-0.60;99.90
10968;DHT22;5536;49.602;10.980;2024-01-16T07:29:50;-0.50;99.90
10968;DHT22;5536;49.602;10.980;2024-01-16T07:32:18;-0.60;99.90
10968;DHT22;5536;49.602;10.980;2024-01-16T07:34:46;-0.50;99.90
10968;DHT22;5536;49.602;10.980;2024-01-16T07:37:13;-0.50;99.90
10968;DHT22;5536;49.602;10.980;2024-01-16T07:39:41;-0.60;99.90
10968;DHT22;5536;49.602;10.980;2024-01-16T07:42:08;-0.50;99.90
10968;DHT22;5536;49.602;10.980;2024-01-16T07:44:36;-0.40;99.90
10968;DHT22;5536;49.602;10.980;2024-01-16T07:47:03;-0.40;99.90
10968;DHT22;5536;49.602;10.980;2024-01-16T07:49:30;-0.40;99.90
10968;DHT22;5536;49.602;10.980;2024-01-16T07:51:59;-0.40;99.90
10968;DHT22;5536;49.602;10.980;2024-01-16T07:54:26;-0.40;99.90
10968;DHT22;5536;49.602;10.980;2024-01-16T07:56:53;-0.40;99.90
10968;DHT22;5536;49.602;10.980;2024-01-16T07:59:20;-0.40;99.90
10968;DHT22;5536;49.602;10.980;2024-01-16T08:01:47;-0.30;99.90
10968;DHT22;5536;49.602;10.980;2024-01-16T08:04:14;-0.30;99.90
10968;DHT22;5536;49.602;10.980;2024-01-16T08:06:42;-0.30;99.90
10968;DHT22;5536;49.602;10.980;2024-01-16T08:09:11;-0.30;99.90
10968;DHT22;5536;49.602;10.980;2024-01-16T08:11:38;-0.30;99.90
10968;DHT22;5536;49.602;10.980;2024-01-16T08:14:05;-0.20;99.90
10968;DHT22;5536;49.602;10.980;2024-01-16T08:16:32;-0.20;99.90
10968;DHT22;5536;49.602;10.980;2024-01-16T08:18:59;-0.20;99.90
10968;DHT22;5536;49.602;10.980;2024-01-16T08:21:27;-0.10;99.90
10968;DHT22;5536;49.602;10.980;2024-01-16T08:23:54;-0.10;99.90
10968;DHT22;5536;49.602;10.980;2024-01-16T08:26:22;0.00;99.90
10968;DHT22;5536;49.602;10.980;2024-01-16T08:28:49;0.00;99.90
10968;DHT22;5536;49.602;10.980;2024-01-16T08:31:17;-0.10;99.90
10968;DHT22;5536;49.602;10.980;2024-01-16T08:33:44;0.00;99.90
10968;DHT22;5536;49.602;10.980;2024-01-16T08:36:11;0.10;99.90
10968;DHT22;5536;49.602;10.980;2024-01-16T08:38:38;0.10;99.90
10968;DHT22;5536;49.602;10.980;2024-01-16T08:41:05;0.00;99.90
10968;DHT22;5536;49.602;10.980;2024-01-16T08:43:34;0.10;99.90
10968;DHT22;5536;49.602;10.980;2024-01-16T08:46:01;0.10;99.90
10968;DHT22;5536;49.602;10.980;2024-01-16T08:48:29;0.00;99.90
10968;DHT22;5536;49.602;10.980;2024-01-16T08:50:56;0.10;99.90
10968;DHT22;5536;49.602;10.980;2024-01-16T08:53:24;0.10;99.90
10968;DHT22;5536;49.602;10.980;2024-01-16T08:55:51;0.20;99.90
10968;DHT22;5536;49.602;10.980;2024-01-16T08:58:18;0.30;99.90
10968;DHT22;5536;49.602;10.980;2024-01-16T09:00:47;0.30;99.90
10968;DHT22;5536;49.602;10.980;2024-01-16T09:03:14;0.30;99.90
10968;DHT22;5536;49.602;10.980;2024-01-16T09:05:41;0.30;99.90
10968;DHT22;5536;49.602;10.980;2024-01-16T09:08:08;0.30;99.90
10968;DHT22;5536;49.602;10.980;2024-01-16T09:10:36;0.40;99.90
10968;DHT22;5536;49.602;10.980;2024-01-16T09:13:03;0.40;99.90
10968;DHT22;5536;49.602;10.980;2024-01-16T09:15:30;0.50;99.90
10968;DHT22;5536;49.602;10.980;2024-01-16T09:17:58;0.40;99.90
10968;DHT22;5536;49.602;10.980;2024-01-16T09:20:25;0.50;99.90
10968;DHT22;5536;49.602;10.980;2024-01-16T09:22:52;0.60;99.90
10968;DHT22;5536;49.602;10.980;2024-01-16T09:25:19;0.60;99.90
10968;DHT22;5536;49.602;10.980;2024-01-16T09:27:49;0.50;99.90
10968;DHT22;5536;49.602;10.980;2024-01-16T09:30:16;0.40;99.90
10968;DHT22;5536;49.602;10.980;2024-01-16T09:32:44;0.30;99.90
10968;DHT22;5536;49.602;10.980;2024-01-16T09:35:12;0.30;99.90
10968;DHT22;5536;49.602;10.980;2024-01-16T09:37:39;0.20;99.90
10968;DHT22;5536;49.602;10.980;2024-01-16T09:40:07;0.10;99.90
10968;DHT22;5536;49.602;10.980;2024-01-16T09:42:35;0.10;99.90
10968;DHT22;5536;49.602;10.980;2024-01-16T09:45:02;0.10;99.90
10968;DHT22;5536;49.602;10.980;2024-01-16T09:47:30;0.10;99.90
10968;DHT22;5536;49.602;10.980;2024-01-16T09:49:57;0.10;99.90
10968;DHT22;5536;49.602;10.980;2024-01-16T09:52:27;0.20;99.90
10968;DHT22;5536;49.602;10.980;2024-01-16T09:54:54;0.20;99.90
10968;DHT22;5536;49.602;10.980;2024-01-16T09:57:24;0.30;99.90
10968;DHT22;5536;49.602;10.980;2024-01-16T09:59:52;0.30;99.90
10968;DHT22;5536;49.602;10.980;2024-01-16T10:02:20;0.20;99.90
10968;DHT22;5536;49.602;10.980;2024-01-16T10:04:48;0.20;99.90
10968;DHT22;5536;49.602;10.980;2024-01-16T10:07:16;0.20;99.90
10968;DHT22;5536;49.602;10.980;2024-01-16T10:09:45;0.20;99.90
10968;DHT22;5536;49.602;10.980;2024-01-16T10:12:13;0.30;99.90
10968;DHT22;5536;49.602;10.980;2024-01-16T10:14:41;0.40;99.90
10968;DHT22;5536;49.602;10.980;2024-01-16T10:17:09;0.60;99.90
10968;DHT22;5536;49.602;10.980;2024-01-16T10:19:48;0.70;99.90
10968;DHT22;5536;49.602;10.980;2024-01-16T10:22:20;0.70;99.90
10968;DHT22;5536;49.602;10.980;2024-01-16T10:24:49;0.80;99.90
10968;DHT22;5536;49.602;10.980;2024-01-16T10:27:16;0.80;99.90
10968;DHT22;5536;49.602;10.980;2024-01-16T10:29:54;0.80;99.90
10968;DHT22;5536;49.602;10.980;2024-01-16T10:32:29;0.80;99.90
10968;DHT22;5536;49.602;10.980;2024-01-16T10:35:04;0.80;99.90
10968;DHT22;5536;49.602;10.980;2024-01-16T10:37:40;1.00;99.90
10968;DHT22;5536;49.602;10.980;2024-01-16T10:40:10;1.00;99.90
10968;DHT22;5536;49.602;10.980;2024-01-16T10:42:37;1.20;99.90
10968;DHT22;5536;49.602;10.980;2024-01-16T10:45:05;1.40;99.90
10968;DHT22;5536;49.602;10.980;2024-01-16T10:47:33;1.40;99.90
10968;DHT22;5536;49.602;10.980;2024-01-16T10:50:03;1.60;99.90
10968;DHT22;5536;49.602;10.980;2024-01-16T10:52:33;1.50;99.90
10968;DHT22;5536;49.602;10.980;2024-01-16T10:55:03;1.60;99.90
10968;DHT22;5536;49.602;10.980;2024-01-16T10:57:37;1.70;99.90
10968;DHT22;5536;49.602;10.980;2024-01-16T11:00:09;1.70;99.90
10968;DHT22;5536;49.602;10.980;2024-01-16T11:02:42;1.40;99.90
10968;DHT22;5536;49.602;10.980;2024-01-16T11:05:12;1.30;99.90
10968;DHT22;5536;49.602;10.980;2024-01-16T11:07:40;1.20;99.90
10968;DHT22;5536;49.602;10.980;2024-01-16T11:10:09;1.10;99.90
10968;DHT22;5536;49.602;10.980;2024-01-16T11:12:39;1.10;99.90
10968;DHT22;5536;49.602;10.980;2024-01-16T11:15:08;1.10;99.90
10968;DHT22;5536;49.602;10.980;2024-01-16T11:17:38;1.00;99.90
10968;DHT22;5536;49.602;10.980;2024-01-16T11:20:09;1.00;99.90
10968;DHT22;5536;49.602;10.980;2024-01-16T11:22:40;1.10;99.90
10968;DHT22;5536;49.602;10.980;2024-01-16T11:25:09;1.10;99.90
10968;DHT22;5536;49.602;10.980;2024-01-16T11:27:38;1.10;99.90
10968;DHT22;5536;49.602;10.980;2024-01-16T11:30:07;1.20;99.90
10968;DHT22;5536;49.602;10.980;2024-01-16T11:32:38;1.20;99.90
10968;DHT22;5536;49.602;10.980;2024-01-16T11:35:07;1.20;99.90
10968;DHT22;5536;49.602;10.980;2024-01-16T11:37:36;1.20;99.90
10968;DHT22;5536;49.602;10.980;2024-01-16T11:40:24;1.40;99.90
10968;DHT22;5536;49.602;10.980;2024-01-16T11:42:54;1.30;99.90
10968;DHT22;5536;49.602;10.980;2024-01-16T11:45:50;1.40;99.90
10968;DHT22;5536;49.602;10.980;2024-01-16T11:48:19;1.40;99.90
10968;DHT22;5536;49.602;10.980;2024-01-16T11:50:47;1.40;99.90
10968;DHT22;5536;49.602;10.980;2024-01-16T11:53:34;1.60;99.90
10968;DHT22;5536;49.602;10.980;2024-01-16T11:56:24;1.70;99.90
10968;DHT22;5536;49.602;10.980;2024-01-16T11:59:14;1.70;99.90
10968;DHT22;5536;49.602;10.980;2024-01-16T12:01:46;1.60;99.90
10968;DHT22;5536;49.602;10.980;2024-01-16T12:04:17;1.60;99.90
10968;DHT22;5536;49.602;10.980;2024-01-16T12:06:57;1.80;99.90
10968;DHT22;5536;49.602;10.980;2024-01-16T12:09:26;1.80;99.90
10968;DHT22;5536;49.602;10.980;2024-01-16T12:11:58;1.90;99.90
10968;DHT22;5536;49.602;10.980;2024-01-16T12:14:29;2.00;99.90
10968;DHT22;5536;49.602;10.980;2024-01-16T12:17:08;1.90;99.90
10968;DHT22;5536;49.602;10.980;2024-01-16T12:19:37;1.80;99.90
10968;DHT22;5536;49.602;10.980;2024-01-16T12:22:08;1.90;99.90
10968;DHT22;5536;49.602;10.980;2024-01-16T12:24:36;1.80;99.90
10968;DHT22;5536;49.602;10.980;2024-01-16T12:27:03;1.90;99.90
10968;DHT22;5536;49.602;10.980;2024-01-16T12:29:33;2.00;99.90
10968;DHT22;5536;49.602;10.980;2024-01-16T12:32:07;2.30;99.90
10968;DHT22;5536;49.602;10.980;2024-01-16T12:34:35;2.40;99.90
10968;DHT22;5536;49.602;10.980;2024-01-16T12:37:10;2.50;99.90
10968;DHT22;5536;49.602;10.980;2024-01-16T12:39:38;2.60;99.90
10968;DHT22;5536;49.602;10.980;2024-01-16T12:42:08;2.50;99.90
10968;DHT22;5536;49.602;10.980;2024-01-16T12:44:38;2.60;99.90
10968;DHT22;5536;49.602;10.980;2024-01-16T12:47:06;2.60;99.90
10968;DHT22;5536;49.602;10.980;2024-01-16T12:49:40;2.60;99.90
10968;DHT22;5536;49.602;10.980;2024-01-16T12:52:15;2.70;99.90
10968;DHT22;5536;49.602;10.980;2024-01-16T12:54:43;2.40;99.90
10968;DHT22;5536;49.602;10.980;2024-01-16T12:57:16;2.30;99.90
10968;DHT22;5536;49.602;10.980;2024-01-16T12:59:47;2.20;99.90
10968;DHT22;5536;49.602;10.980;2024-01-16T13:02:21;2.10;99.90
10968;DHT22;5536;49.602;10.980;2024-01-16T13:04:56;2.20;99.90
10968;DHT22;5536;49.602;10.980;2024-01-16T13:07:24;2.40;99.90
10968;DHT22;5536;49.602;10.980;2024-01-16T13:10:06;2.50;99.90
10968;DHT22;5536;49.602;10.980;2024-01-16T13:12:33;2.60;99.90
10968;DHT22;5536;49.602;10.980;2024-01-16T13:15:03;2.50;99.90
10968;DHT22;5536;49.602;10.980;2024-01-16T13:17:31;2.60;99.90
10968;DHT22;5536;49.602;10.980;2024-01-16T13:19:59;2.50;99.90
10968;DHT22;5536;49.602;10.980;2024-01-16T13:22:26;2.40;99.90
10968;DHT22;5536;49.602;10.980;2024-01-16T13:24:53;2.30;99.90
10968;DHT22;5536;49.602;10.980;2024-01-16T13:27:21;2.30;99.90
10968;DHT22;5536;49.602;10.980;2024-01-16T13:29:49;2.20;99.90
10968;DHT22;5536;49.602;10.980;2024-01-16T13:32:17;2.20;99.90
10968;DHT22;5536;49.602;10.980;2024-01-16T13:34:44;2.20;99.90
10968;DHT22;5536;49.602;10.980;2024-01-16T13:37:20;2.20;99.90
10968;DHT22;5536;49.602;10.980;2024-01-16T13:39:47;2.10;99.90
10968;DHT22;5536;49.602;10.980;2024-01-16T13:42:16;2.10;99.90
10968;DHT22;5536;49.602;10.980;2024-01-16T13:45:01;2.20;99.90
10968;DHT22;5536;49.602;10.980;2024-01-16T13:47:32;2.30;99.90
10968;DHT22;5536;49.602;10.980;2024-01-16T13:50:08;2.60;99.90
10968;DHT22;5536;49.602;10.980;2024-01-16T13:52:36;2.70;99.90
10968;DHT22;5536;49.602;10.980;2024-01-16T13:55:06;2.60;99.90
10968;DHT22;5536;49.602;10.980;2024-01-16T13:57:35;2.30;99.90
10968;DHT22;5536;49.602;10.980;2024-01-16T14:00:03;2.00;99.90
10968;DHT22;5536;49.602;10.980;2024-01-16T14:02:33;1.90;99.90
10968;DHT22;5536;49.602;10.980;2024-01-16T14:05:03;2.00;99.90
10968;DHT22;5536;49.602;10.980;2024-01-16T14:07:35;1.90;99.90
10968;DHT22;5536;49.602;10.980;2024-01-16T14:10:03;1.90;99.90
10968;DHT22;5536;49.602;10.980;2024-01-16T14:12:32;1.70;99.90
10968;DHT22;5536;49.602;10.980;2024-01-16T14:14:59;1.70;99.90
10968;DHT22;5536;49.602;10.980;2024-01-16T14:17:29;1.70;99.90
10968;DHT22;5536;49.602;10.980;2024-01-16T14:19:59;1.70;99.90
10968;DHT22;5536;49.602;10.980;2024-01-16T14:22:26;1.70;99.90
10968;DHT22;5536;49.602;10.980;2024-01-16T14:24:54;1.80;99.90
10968;DHT22;5536;49.602;10.980;2024-01-16T14:27:22;1.70;99.90
10968;DHT22;5536;49.602;10.980;2024-01-16T14:29:53;1.70;99.90
10968;DHT22;5536;49.602;10.980;2024-01-16T14:32:24;1.60;99.90
10968;DHT22;5536;49.602;10.980;2024-01-16T14:34:51;1.70;99.90
10968;DHT22;5536;49.602;10.980;2024-01-16T14:37:27;1.60;99.90
10968;DHT22;5536;49.602;10.980;2024-01-16T14:39:58;1.50;99.90
10968;DHT22;5536;49.602;10.980;2024-01-16T14:42:29;1.40;99.90
10968;DHT22;5536;49.602;10.980;2024-01-16T14:44:59;1.30;99.90
10968;DHT22;5536;49.602;10.980;2024-01-16T14:47:26;1.10;99.90
10968;DHT22;5536;49.602;10.980;2024-01-16T14:49:56;1.10;99.90
10968;DHT22;5536;49.602;10.980;2024-01-16T14:52:25;1.10;99.90
10968;DHT22;5536;49.602;10.980;2024-01-16T14:54:54;1.10;99.90
10968;DHT22;5536;49.602;10.980;2024-01-16T14:57:21;1.10;99.90
10968;DHT22;5536;49.602;10.980;2024-01-16T14:59:49;1.10;99.90
10968;DHT22;5536;49.602;10.980;2024-01-16T15:02:16;1.00;99.90
10968;DHT22;5536;49.602;10.980;2024-01-16T15:04:46;1.00;99.90
10968;DHT22;5536;49.602;10.980;2024-01-16T15:07:14;0.90;99.90
10968;DHT22;5536;49.602;10.980;2024-01-16T15:09:44;0.90;99.90
10968;DHT22;5536;49.602;10.980;2024-01-16T15:12:14;0.90;99.90
10968;DHT22;5536;49.602;10.980;2024-01-16T15:14:41;0.80;99.90
10968;DHT22;5536;49.602;10.980;2024-01-16T15:17:12;0.80;99.90
10968;DHT22;5536;49.602;10.980;2024-01-16T15:19:39;0.80;99.90
10968;DHT22;5536;49.602;10.980;2024-01-16T15:22:06;0.80;99.90
10968;DHT22;5536;49.602;10.980;2024-01-16T15:24:36;0.70;99.90
10968;DHT22;5536;49.602;10.980;2024-01-16T15:27:05;0.70;99.90
10968;DHT22;5536;49.602;10.980;2024-01-16T15:29:32;0.70;99.90
10968;DHT22;5536;49.602;10.980;2024-01-16T15:31:59;0.70;99.90
10968;DHT22;5536;49.602;10.980;2024-01-16T15:34:28;0.70;99.90
10968;DHT22;5536;49.602;10.980;2024-01-16T15:36:55;0.70;99.90
10968;DHT22;5536;49.602;10.980;2024-01-16T15:39:25;0.70;99.90
10968;DHT22;5536;49.602;10.980;2024-01-16T15:41:55;0.60;99.90
10968;DHT22;5536;49.602;10.980;2024-01-16T15:44:24;0.60;99.90
10968;DHT22;5536;49.602;10.980;2024-01-16T15:46:59;0.60;99.90
10968;DHT22;5536;49.602;10.980;2024-01-16T15:49:27;0.60;99.90